Time;durP1;ratioP1;P1;durP2;ratioP2;P2;SDS_P1;SDS_P2;PMS_P1;PMS_P2;Temp;Humidity;BMP_temperature;BMP_pressure;BME280_temperature;BME280_humidity;BME280_pressure;Samples;Min_cycle;Max_cycle;Signal;HPM_P1;HPM_P2
2023/12/04 00:02:11;;;;;;;49.33;15.82;;;;;;;;;;5093185;28;20048;-79
2023/12/04 00:04:37;;;;;;;41.17;12.63;;;;;;;;;;5094138;28;20130;-76
2023/12/04 00:07:03;;;;;;;44.65;15.75;;;;;;;;;;5093240;28;20527;-76
2023/12/04 00:09:30;;;;;;;32.53;11.75;;;;;;;;;;5077343;28;20062;-78
2023/12/04 00:11:56;;;;;;;43.78;14.05;;;;;;;;;;5094083;28;20040;-77
2023/12/04 00:14:22;;;;;;;48.22;13.15;;;;;;;;;;5077291;28;20136;-78
2023/12/04 00:16:48;;;;;;;42.33;13.95;;;;;;;;;;5093374;28;20431;-77
2023/12/04 00:19:14;;;;;;;40.58;14.70;;;;;;;;;;5093016;28;20052;-77
2023/12/04 00:21:40;;;;;;;41.63;14.05;;;;;;;;;;5092608;28;20048;-78
2023/12/04 00:24:06;;;;;;;44.08;13.32;;;;;;;;;;5094063;28;20051;-79
2023/12/04 00:26:32;;;;;;;29.70;9.82;;;;;;;;;;5094452;28;20518;-76
2023/12/04 00:28:59;;;;;;;36.65;12.48;;;;;;;;;;5092659;28;20051;-78
2023/12/04 00:31:25;;;;;;;42.10;14.02;;;;;;;;;;5093255;28;20048;-79
2023/12/04 00:33:51;;;;;;;38.15;12.77;;;;;;;;;;5094801;28;20105;-78
2023/12/04 00:36:19;;;;;;;41.03;13.23;;;;;;;;;;5092820;28;20051;-77
2023/12/04 00:38:45;;;;;;;42.38;13.00;;;;;;;;;;5094804;28;20048;-78
2023/12/04 00:41:11;;;;;;;42.65;15.27;;;;;;;;;;5097082;28;20040;-79
2023/12/04 00:43:37;;;;;;;42.92;14.60;;;;;;;;;;5098781;28;20055;-79
2023/12/04 00:46:04;;;;;;;39.97;12.48;;;;;;;;;;5098770;28;20566;-77
2023/12/04 00:48:30;;;;;;;36.38;12.63;;;;;;;;;;5098367;28;20047;-78
2023/12/04 00:50:56;;;;;;;47.05;15.15;;;;;;;;;;5097589;28;20048;-78
2023/12/04 00:53:22;;;;;;;43.17;14.68;;;;;;;;;;5097249;28;20044;-78
2023/12/04 00:55:48;;;;;;;45.45;13.55;;;;;;;;;;5079858;28;20345;-76
2023/12/04 00:58:14;;;;;;;45.80;14.85;;;;;;;;;;5097205;28;20512;-79
2023/12/04 01:00:40;;;;;;;31.08;10.45;;;;;;;;;;5097350;28;20509;-81
2023/12/04 01:03:06;;;;;;;44.22;14.60;;;;;;;;;;5096044;28;20177;-78
2023/12/04 01:05:32;;;;;;;31.65;10.70;;;;;;;;;;5097557;28;20044;-80
2023/12/04 01:07:58;;;;;;;33.17;11.20;;;;;;;;;;5098815;28;20462;-77
2023/12/04 01:10:24;;;;;;;42.70;13.88;;;;;;;;;;5097916;28;20059;-78
2023/12/04 01:12:51;;;;;;;48.75;16.77;;;;;;;;;;5098479;28;20101;-73
2023/12/04 01:15:17;;;;;;;40.20;14.38;;;;;;;;;;5097802;28;20391;-79
2023/12/04 01:17:43;;;;;;;45.08;15.15;;;;;;;;;;5097811;28;20468;-79
2023/12/04 01:20:10;;;;;;;50.20;14.40;;;;;;;;;;5131371;27;20047;-80
2023/12/04 01:22:36;;;;;;;41.65;13.32;;;;;;;;;;5098416;28;20040;-77
2023/12/04 01:25:03;;;;;;;44.88;14.65;;;;;;;;;;5096760;28;20055;-79
2023/12/04 01:27:29;;;;;;;45.63;16.83;;;;;;;;;;5096412;28;20126;-80
2023/12/04 01:29:55;;;;;;;37.90;12.27;;;;;;;;;;5113531;28;20051;-77
2023/12/04 01:32:21;;;;;;;42.05;14.52;;;;;;;;;;5097567;28;20048;-80
2023/12/04 01:34:47;;;;;;;48.75;16.02;;;;;;;;;;5097022;28;20044;-79
2023/12/04 01:37:13;;;;;;;50.35;14.85;;;;;;;;;;5096896;28;20050;-80
2023/12/04 01:39:39;;;;;;;42.67;13.48;;;;;;;;;;5096969;28;20074;-79
2023/12/04 01:42:05;;;;;;;44.53;14.77;;;;;;;;;;5096864;28;20040;-80
2023/12/04 01:44:31;;;;;;;36.88;12.80;;;;;;;;;;5097418;28;20044;-76
2023/12/04 01:46:57;;;;;;;42.92;14.88;;;;;;;;;;5095779;28;20139;-79
2023/12/04 01:49:24;;;;;;;49.38;15.10;;;;;;;;;;5094214;28;20369;-77
2023/12/04 01:51:50;;;;;;;40.05;11.55;;;;;;;;;;5094625;28;20423;-78
2023/12/04 01:54:17;;;;;;;43.83;13.98;;;;;;;;;;5077180;28;20079;-79
2023/12/04 01:56:43;;;;;;;40.78;14.20;;;;;;;;;;5077249;28;20052;-80
2023/12/04 01:59:09;;;;;;;44.70;14.93;;;;;;;;;;5112750;28;20052;-78
2023/12/04 02:01:36;;;;;;;45.00;14.90;;;;;;;;;;5100444;28;20044;-78
2023/12/04 02:04:03;;;;;;;41.50;13.63;;;;;;;;;;5102036;28;20055;-77
2023/12/04 02:06:29;;;;;;;47.47;14.30;;;;;;;;;;5081495;28;20534;-77
2023/12/04 02:08:57;;;;;;;49.17;17.05;;;;;;;;;;5097254;28;20040;-77
2023/12/04 02:11:23;;;;;;;37.95;12.40;;;;;;;;;;5095077;28;20127;-78
2023/12/04 02:13:49;;;;;;;45.15;13.73;;;;;;;;;;5094923;28;20078;-77
2023/12/04 02:16:18;;;;;;;37.30;12.07;;;;;;;;;;5094736;28;20051;-77
2023/12/04 02:18:44;;;;;;;41.63;14.32;;;;;;;;;;5095237;28;20048;-77
2023/12/04 02:21:10;;;;;;;32.47;11.35;;;;;;;;;;5127717;28;20055;-76
2023/12/04 02:23:37;;;;;;;46.80;15.27;;;;;;;;;;5094780;28;20040;-75
2023/12/04 02:26:10;;;;;;;42.15;13.48;;;;;;;;;;5094507;28;20056;-77
2023/12/04 02:28:37;;;;;;;43.03;13.90;;;;;;;;;;5094846;28;20056;-78
2023/12/04 02:31:07;;;;;;;47.10;14.77;;;;;;;;;;5077334;28;20051;-75
2023/12/04 02:33:35;;;;;;;38.53;13.40;;;;;;;;;;5094928;28;20039;-77
2023/12/04 02:36:02;;;;;;;44.42;14.32;;;;;;;;;;5094297;28;20048;-77
2023/12/04 02:38:28;;;;;;;40.10;12.98;;;;;;;;;;5076541;28;20040;-77
2023/12/04 02:40:55;;;;;;;48.07;15.73;;;;;;;;;;5093350;28;20495;-77
2023/12/04 02:43:21;;;;;;;48.17;15.35;;;;;;;;;;5094085;28;20048;-78
2023/12/04 02:45:47;;;;;;;39.97;12.65;;;;;;;;;;5094197;28;20492;-77
2023/12/04 02:48:13;;;;;;;44.40;14.00;;;;;;;;;;5056884;28;1089493;-77
2023/12/04 02:50:39;;;;;;;40.05;13.10;;;;;;;;;;5093781;28;20044;-76
2023/12/04 02:53:05;;;;;;;44.03;13.25;;;;;;;;;;5093951;28;20055;-75
2023/12/04 02:55:31;;;;;;;48.40;14.23;;;;;;;;;;5095230;28;20447;-79
2023/12/04 02:57:57;;;;;;;38.38;13.05;;;;;;;;;;5128041;27;20127;-77
2023/12/04 03:00:23;;;;;;;38.78;11.68;;;;;;;;;;5077049;28;20051;-78
2023/12/04 03:02:50;;;;;;;48.80;15.25;;;;;;;;;;5094481;28;20040;-79
2023/12/04 03:05:16;;;;;;;41.40;14.02;;;;;;;;;;5094810;28;20080;-78
2023/12/04 03:07:42;;;;;;;45.20;14.40;;;;;;;;;;5093798;28;20051;-78
2023/12/04 03:10:08;;;;;;;43.33;14.38;;;;;;;;;;5094788;28;20048;-78
2023/12/04 03:12:34;;;;;;;39.15;12.73;;;;;;;;;;5093368;28;20044;-79
2023/12/04 03:15:00;;;;;;;43.03;14.73;;;;;;;;;;5094568;28;20132;-76
2023/12/04 03:17:27;;;;;;;44.00;13.40;;;;;;;;;;5093666;28;20048;-78
2023/12/04 03:19:53;;;;;;;48.78;15.35;;;;;;;;;;5094191;28;20051;-77
2023/12/04 03:22:19;;;;;;;41.70;13.55;;;;;;;;;;5094987;28;20406;-78
2023/12/04 03:24:45;;;;;;;40.13;13.80;;;;;;;;;;5094319;28;20044;-78
2023/12/04 03:27:11;;;;;;;46.40;14.33;;;;;;;;;;5093360;28;20139;-76
2023/12/04 03:29:37;;;;;;;39.22;13.90;;;;;;;;;;5092762;28;20487;-77
2023/12/04 03:32:04;;;;;;;45.33;13.15;;;;;;;;;;5076759;28;20379;-76
2023/12/04 03:34:30;;;;;;;43.63;13.68;;;;;;;;;;5093222;28;20048;-78
2023/12/04 03:36:56;;;;;;;36.53;10.52;;;;;;;;;;5093952;28;20051;-78
2023/12/04 03:39:22;;;;;;;40.13;13.77;;;;;;;;;;5093253;28;20048;-78
2023/12/04 03:41:48;;;;;;;42.55;13.98;;;;;;;;;;5076615;28;20123;-78
2023/12/04 03:44:14;;;;;;;42.33;14.07;;;;;;;;;;5094583;28;20048;-78
2023/12/04 03:46:40;;;;;;;45.05;14.60;;;;;;;;;;5076067;28;20055;-77
2023/12/04 03:49:06;;;;;;;42.80;14.30;;;;;;;;;;5094391;28;20051;-78
2023/12/04 03:51:32;;;;;;;38.17;12.07;;;;;;;;;;5093229;28;20091;-78
2023/12/04 03:53:58;;;;;;;45.25;13.52;;;;;;;;;;5093130;28;20048;-79
2023/12/04 03:56:24;;;;;;;48.92;13.90;;;;;;;;;;5094557;28;20066;-78
2023/12/04 03:58:50;;;;;;;43.58;13.90;;;;;;;;;;5094251;28;20436;-80
2023/12/04 04:01:16;;;;;;;45.13;14.60;;;;;;;;;;5093792;28;20048;-79
2023/12/04 04:03:42;;;;;;;41.25;12.30;;;;;;;;;;5094692;28;20048;-80
2023/12/04 04:06:09;;;;;;;34.80;10.35;;;;;;;;;;5094310;28;20120;-80
2023/12/04 04:08:35;;;;;;;38.70;11.20;;;;;;;;;;5092741;28;20048;-76
2023/12/04 04:11:01;;;;;;;38.50;13.05;;;;;;;;;;5092647;28;20309;-78
2023/12/04 04:13:27;;;;;;;36.75;12.18;;;;;;;;;;5093915;28;20586;-79
2023/12/04 04:15:54;;;;;;;33.38;10.40;;;;;;;;;;5093848;28;20130;-78
2023/12/04 04:18:20;;;;;;;36.25;11.20;;;;;;;;;;5093508;28;20078;-77
2023/12/04 04:20:46;;;;;;;39.28;13.30;;;;;;;;;;5096399;28;20396;-79
2023/12/04 04:23:12;;;;;;;30.33;9.85;;;;;;;;;;5098682;28;20122;-77
2023/12/04 04:25:38;;;;;;;36.72;12.82;;;;;;;;;;5097012;28;20040;-78
2023/12/04 04:28:04;;;;;;;35.55;12.18;;;;;;;;;;5093300;28;20067;-77
2023/12/04 04:30:30;;;;;;;42.78;14.20;;;;;;;;;;5092815;28;20059;-78
2023/12/04 04:32:56;;;;;;;36.72;12.35;;;;;;;;;;5093641;28;20109;-75
2023/12/04 04:35:22;;;;;;;36.22;10.05;;;;;;;;;;5093682;28;20430;-74
2023/12/04 04:37:48;;;;;;;33.50;10.25;;;;;;;;;;5094689;28;20135;-76
2023/12/04 04:40:14;;;;;;;35.90;12.27;;;;;;;;;;5093675;28;20101;-78
2023/12/04 04:42:40;;;;;;;33.33;12.30;;;;;;;;;;5075244;28;20044;-78
2023/12/04 04:45:07;;;;;;;40.17;13.02;;;;;;;;;;5093838;28;20070;-75
2023/12/04 04:47:33;;;;;;;33.45;11.82;;;;;;;;;;5075201;28;20066;-77
2023/12/04 04:49:59;;;;;;;35.97;12.25;;;;;;;;;;5093850;28;20059;-77
2023/12/04 04:52:25;;;;;;;35.10;12.18;;;;;;;;;;5091897;28;20127;-75
2023/12/04 04:54:51;;;;;;;30.90;10.15;;;;;;;;;;5094243;28;20037;-77
2023/12/04 04:57:17;;;;;;;29.48;9.57;;;;;;;;;;5094014;28;20421;-77
2023/12/04 04:59:43;;;;;;;35.60;12.63;;;;;;;;;;5126721;28;20383;-77
2023/12/04 05:02:09;;;;;;;34.15;11.63;;;;;;;;;;5093819;28;20353;-76
2023/12/04 05:04:35;;;;;;;36.22;12.20;;;;;;;;;;5093642;28;20122;-77
2023/12/04 05:07:01;;;;;;;34.50;9.75;;;;;;;;;;5093251;28;20109;-76
2023/12/04 05:09:27;;;;;;;25.77;8.30;;;;;;;;;;5091834;28;20126;-77
2023/12/04 05:11:53;;;;;;;29.95;10.27;;;;;;;;;;5092176;28;20048;-76
2023/12/04 05:14:19;;;;;;;35.65;11.82;;;;;;;;;;5093178;28;20131;-75
2023/12/04 05:16:45;;;;;;;34.22;10.77;;;;;;;;;;5092984;28;20131;-78
2023/12/04 05:19:11;;;;;;;29.02;8.68;;;;;;;;;;5092882;28;20085;-74
2023/12/04 05:21:38;;;;;;;31.02;9.55;;;;;;;;;;5093033;28;20098;-73
2023/12/04 05:24:04;;;;;;;31.13;8.75;;;;;;;;;;5092730;28;20074;-77
2023/12/04 05:26:30;;;;;;;33.70;11.55;;;;;;;;;;5095477;28;20044;-76
2023/12/04 05:28:56;;;;;;;31.77;11.18;;;;;;;;;;5096827;28;20040;-78
2023/12/04 05:31:22;;;;;;;30.05;9.48;;;;;;;;;;5095629;28;20139;-77
2023/12/04 05:33:48;;;;;;;27.80;9.47;;;;;;;;;;5096848;28;20048;-76
2023/12/04 05:36:14;;;;;;;20.00;6.95;;;;;;;;;;5096696;28;20503;-78
2023/12/04 05:38:40;;;;;;;20.67;7.47;;;;;;;;;;5095454;28;20039;-74
2023/12/04 05:41:06;;;;;;;30.23;9.82;;;;;;;;;;5096970;28;20095;-76
2023/12/04 05:43:33;;;;;;;32.97;10.55;;;;;;;;;;5095424;28;20442;-76
2023/12/04 05:45:59;;;;;;;31.48;10.50;;;;;;;;;;5096212;28;20090;-75
2023/12/04 05:48:25;;;;;;;16.20;6.18;;;;;;;;;;5095483;28;20056;-79
2023/12/04 05:50:51;;;;;;;27.35;8.93;;;;;;;;;;5079013;28;20392;-76
2023/12/04 05:53:17;;;;;;;26.27;9.65;;;;;;;;;;5094957;28;20452;-77
2023/12/04 05:55:45;;;;;;;27.83;9.88;;;;;;;;;;5096084;28;20044;-79
2023/12/04 05:58:11;;;;;;;23.48;8.02;;;;;;;;;;5095676;28;20122;-77
2023/12/04 06:00:37;;;;;;;28.73;9.63;;;;;;;;;;5094689;28;20477;-79
2023/12/04 06:03:03;;;;;;;21.20;7.97;;;;;;;;;;5096047;28;20066;-77
2023/12/04 06:05:29;;;;;;;32.80;10.30;;;;;;;;;;5094878;28;20044;-73
2023/12/04 06:07:57;;;;;;;30.35;10.25;;;;;;;;;;5095029;28;20087;-78
2023/12/04 06:10:23;;;;;;;30.08;9.73;;;;;;;;;;5095681;28;20048;-76
2023/12/04 06:12:49;;;;;;;28.00;9.45;;;;;;;;;;5094674;28;20370;-78
2023/12/04 06:15:16;;;;;;;32.33;10.32;;;;;;;;;;5096639;28;20048;-77
2023/12/04 06:17:42;;;;;;;32.03;10.85;;;;;;;;;;5096669;28;20048;-79
2023/12/04 06:20:08;;;;;;;30.35;10.70;;;;;;;;;;5095552;28;20484;-75
2023/12/04 06:22:34;;;;;;;29.17;9.57;;;;;;;;;;5094283;28;20100;-77
2023/12/04 06:25:00;;;;;;;22.75;8.02;;;;;;;;;;5096080;28;20403;-77
2023/12/04 06:27:26;;;;;;;21.40;8.10;;;;;;;;;;5095917;28;20051;-75
2023/12/04 06:29:53;;;;;;;28.55;9.75;;;;;;;;;;5094401;28;20420;-77
2023/12/04 06:32:19;;;;;;;25.70;8.98;;;;;;;;;;5094617;28;20052;-79
2023/12/04 06:34:45;;;;;;;22.35;8.50;;;;;;;;;;5094408;28;20486;-77
2023/12/04 06:37:12;;;;;;;27.58;9.70;;;;;;;;;;5094549;28;20066;-76
2023/12/04 06:39:39;;;;;;;28.23;9.52;;;;;;;;;;5094710;28;20421;-76
2023/12/04 06:42:08;;;;;;;23.07;8.33;;;;;;;;;;5099065;28;20051;-76
2023/12/04 06:44:35;;;;;;;24.42;9.18;;;;;;;;;;5101294;28;20044;-78
2023/12/04 06:47:04;;;;;;;22.53;7.97;;;;;;;;;;5101740;28;20077;-78
2023/12/04 06:49:31;;;;;;;25.98;9.50;;;;;;;;;;5096793;28;20461;-78
2023/12/04 06:51:57;;;;;;;19.40;7.27;;;;;;;;;;5096805;28;20099;-79
2023/12/04 06:54:23;;;;;;;22.88;8.32;;;;;;;;;;5095895;28;20127;-74
2023/12/04 06:56:49;;;;;;;21.08;7.78;;;;;;;;;;5096406;28;20089;-78
2023/12/04 06:59:15;;;;;;;23.25;7.85;;;;;;;;;;5095928;28;20071;-76
2023/12/04 07:01:41;;;;;;;25.52;8.93;;;;;;;;;;5093896;28;20051;-75
2023/12/04 07:04:09;;;;;;;19.00;6.63;;;;;;;;;;5095496;28;20048;-78
2023/12/04 07:06:42;;;;;;;22.70;7.97;;;;;;;;;;5095037;28;20048;-79
2023/12/04 07:09:09;;;;;;;25.80;8.65;;;;;;;;;;5094460;28;20048;-76
2023/12/04 07:11:35;;;;;;;24.80;8.68;;;;;;;;;;5095317;28;20043;-79
2023/12/04 07:14:01;;;;;;;23.15;7.55;;;;;;;;;;5094854;28;20089;-75
2023/12/04 07:16:27;;;;;;;22.20;7.65;;;;;;;;;;5093543;28;20048;-76
2023/12/04 07:18:54;;;;;;;21.70;8.07;;;;;;;;;;5093850;28;20051;-76
2023/12/04 07:21:20;;;;;;;17.48;6.50;;;;;;;;;;5094738;28;20092;-76
2023/12/04 07:23:46;;;;;;;18.58;6.43;;;;;;;;;;5094390;28;20052;-79
2023/12/04 07:26:12;;;;;;;18.42;6.70;;;;;;;;;;5094702;28;20048;-75
2023/12/04 07:28:38;;;;;;;18.65;6.20;;;;;;;;;;5096189;28;20113;-76
2023/12/04 07:31:04;;;;;;;16.05;5.72;;;;;;;;;;5095386;28;20381;-80
2023/12/04 07:33:30;;;;;;;20.02;7.32;;;;;;;;;;5129428;27;20044;-78
2023/12/04 07:35:56;;;;;;;23.55;7.30;;;;;;;;;;5096532;28;20051;-78
2023/12/04 07:38:22;;;;;;;19.55;6.43;;;;;;;;;;5095061;28;20052;-80
2023/12/04 07:40:48;;;;;;;16.23;6.20;;;;;;;;;;5094773;28;20488;-77
2023/12/04 07:43:15;;;;;;;21.05;7.47;;;;;;;;;;5095163;28;20048;-77
2023/12/04 07:45:42;;;;;;;22.42;7.35;;;;;;;;;;5094658;28;20051;-78
2023/12/04 07:48:08;;;;;;;18.23;5.15;;;;;;;;;;5094368;28;20060;-76
2023/12/04 07:50:35;;;;;;;16.38;6.55;;;;;;;;;;5094463;28;20479;-76
2023/12/04 07:53:01;;;;;;;22.05;7.50;;;;;;;;;;5094280;28;20040;-75
2023/12/04 07:55:27;;;;;;;25.98;8.23;;;;;;;;;;5095254;28;20047;-77
2023/12/04 07:57:53;;;;;;;22.02;7.78;;;;;;;;;;5094255;28;20361;-76
2023/12/04 08:00:19;;;;;;;19.13;6.85;;;;;;;;;;5094373;28;20135;-77
2023/12/04 08:02:46;;;;;;;17.63;6.68;;;;;;;;;;5095797;28;20044;-72
2023/12/04 08:05:12;;;;;;;19.20;6.93;;;;;;;;;;5096799;28;20159;-76
2023/12/04 08:07:38;;;;;;;18.77;6.30;;;;;;;;;;5094764;28;20040;-78
2023/12/04 08:10:06;;;;;;;16.85;6.35;;;;;;;;;;5093730;28;20514;-79
2023/12/04 08:12:33;;;;;;;18.95;7.18;;;;;;;;;;5093602;28;20044;-77
2023/12/04 08:14:59;;;;;;;;;;;;;;;;;;5095049;28;20438;-76
2023/12/04 08:17:25;;;;;;;17.52;5.95;;;;;;;;;;5093824;28;20014;-76
2023/12/04 08:19:51;;;;;;;14.65;5.15;;;;;;;;;;5094666;28;20136;-75
2023/12/04 08:22:18;;;;;;;14.70;5.45;;;;;;;;;;5093632;28;20036;-75
2023/12/04 08:24:44;;;;;;;19.65;6.30;;;;;;;;;;5094895;28;20062;-79
2023/12/04 08:27:10;;;;;;;17.52;6.90;;;;;;;;;;5095296;28;20035;-77
2023/12/04 08:29:36;;;;;;;18.60;6.97;;;;;;;;;;5094666;28;20048;-76
2023/12/04 08:32:02;;;;;;;22.30;7.88;;;;;;;;;;5092395;28;20488;-77
2023/12/04 08:34:28;;;;;;;20.67;6.68;;;;;;;;;;5094040;28;20093;-75
2023/12/04 08:36:55;;;;;;;17.13;6.05;;;;;;;;;;5093895;28;20044;-77
2023/12/04 08:39:22;;;;;;;17.58;6.68;;;;;;;;;;5093907;28;20044;-76
2023/12/04 08:41:48;;;;;;;19.13;6.78;;;;;;;;;;5076189;28;20394;-77
2023/12/04 08:44:14;;;;;;;19.48;6.63;;;;;;;;;;5075498;28;20070;-77
2023/12/04 08:46:40;;;;;;;20.92;7.22;;;;;;;;;;5092017;28;20086;-76
2023/12/04 08:49:06;;;;;;;14.57;5.45;;;;;;;;;;5093484;28;20056;-74
2023/12/04 08:51:32;;;;;;;18.08;6.30;;;;;;;;;;5092691;28;20044;-76
2023/12/04 08:53:58;;;;;;;19.45;5.93;;;;;;;;;;5092847;28;20048;-77
2023/12/04 08:56:24;;;;;;;17.63;5.70;;;;;;;;;;5093144;28;20079;-78
2023/12/04 08:58:50;;;;;;;17.92;5.93;;;;;;;;;;5093041;28;20040;-78
2023/12/04 09:01:17;;;;;;;17.48;6.60;;;;;;;;;;5095454;28;20063;-75
2023/12/04 09:03:44;;;;;;;21.45;8.40;;;;;;;;;;5096105;28;20499;-77
2023/12/04 09:06:10;;;;;;;15.13;5.10;;;;;;;;;;5098238;28;20073;-78
2023/12/04 09:08:36;;;;;;;18.52;7.90;;;;;;;;;;5100424;28;20044;-77
2023/12/04 09:11:03;;;;;;;16.38;5.05;;;;;;;;;;5105170;28;20460;-76
2023/12/04 09:13:30;;;;;;;19.23;6.93;;;;;;;;;;5102131;28;20048;-76
2023/12/04 09:15:56;;;;;;;15.55;5.43;;;;;;;;;;5098518;28;20500;-72
2023/12/04 09:18:23;;;;;;;16.77;6.05;;;;;;;;;;5097987;28;20058;-79
2023/12/04 09:20:49;;;;;;;20.60;6.75;;;;;;;;;;5097595;28;20051;-78
2023/12/04 09:23:15;;;;;;;20.23;6.45;;;;;;;;;;5097127;28;20044;-76
2023/12/04 09:25:41;;;;;;;16.10;5.50;;;;;;;;;;5097173;28;20044;-78
2023/12/04 09:28:07;;;;;;;15.52;5.82;;;;;;;;;;5096857;28;20395;-77
2023/12/04 09:30:34;;;;;;;14.50;5.45;;;;;;;;;;5097525;28;20154;-76
2023/12/04 09:33:00;;;;;;;16.83;6.70;;;;;;;;;;5096588;28;20438;-75
2023/12/04 09:35:26;;;;;;;17.33;6.70;;;;;;;;;;5096835;28;20044;-77
2023/12/04 09:37:52;;;;;;;16.52;5.95;;;;;;;;;;5096970;28;20092;-77
2023/12/04 09:40:18;;;;;;;13.38;4.70;;;;;;;;;;5096400;28;20118;-75
2023/12/04 09:42:45;;;;;;;14.15;4.88;;;;;;;;;;5096288;28;20083;-78
2023/12/04 09:45:11;;;;;;;20.77;7.17;;;;;;;;;;5096585;28;20048;-75
2023/12/04 09:47:37;;;;;;;17.00;5.80;;;;;;;;;;5096341;28;20294;-78
2023/12/04 09:50:04;;;;;;;14.45;5.03;;;;;;;;;;5097422;28;20098;-80
2023/12/04 09:52:31;;;;;;;14.85;5.05;;;;;;;;;;5098545;28;20085;-76
2023/12/04 09:54:57;;;;;;;15.27;5.70;;;;;;;;;;5097414;28;20079;-78
2023/12/04 09:57:24;;;;;;;15.35;5.40;;;;;;;;;;5096986;28;20044;-76
2023/12/04 09:59:51;;;;;;;17.30;5.88;;;;;;;;;;5098167;28;20526;-78
2023/12/04 10:02:18;;;;;;;22.58;7.95;;;;;;;;;;5096828;28;20048;-77
2023/12/04 10:04:44;;;;;;;17.43;6.17;;;;;;;;;;5097022;28;20040;-81
2023/12/04 10:07:10;;;;;;;14.82;4.95;;;;;;;;;;5096210;28;20051;-75
2023/12/04 10:09:36;;;;;;;18.05;7.63;;;;;;;;;;5095395;28;20088;-77
2023/12/04 10:12:02;;;;;;;15.02;6.20;;;;;;;;;;5095701;28;20044;-75
2023/12/04 10:14:28;;;;;;;11.32;3.55;;;;;;;;;;5095273;28;20078;-77
2023/12/04 10:16:54;;;;;;;15.90;5.68;;;;;;;;;;5095472;28;20044;-76
2023/12/04 10:19:23;;;;;;;12.32;4.57;;;;;;;;;;5095536;28;20048;-76
2023/12/04 10:21:49;;;;;;;14.07;5.45;;;;;;;;;;5095606;28;20094;-73
2023/12/04 10:24:27;;;;;;;16.13;6.50;;;;;;;;;;5095867;28;20043;-75
2023/12/04 10:26:54;;;;;;;16.15;6.35;;;;;;;;;;5095568;28;20044;-76
2023/12/04 10:29:20;;;;;;;21.40;8.30;;;;;;;;;;5094623;28;20503;-74
2023/12/04 10:31:48;;;;;;;17.95;7.55;;;;;;;;;;5094611;28;20048;-77
2023/12/04 10:34:14;;;;;;;13.07;4.88;;;;;;;;;;5077704;28;20051;-78
2023/12/04 10:36:40;;;;;;;15.90;6.70;;;;;;;;;;5095745;28;20164;-77
2023/12/04 10:39:06;;;;;;;24.33;11.77;;;;;;;;;;5095876;28;20494;-77
2023/12/04 10:41:32;;;;;;;15.18;6.28;;;;;;;;;;5094502;28;20052;-77
2023/12/04 10:44:00;;;;;;;14.07;6.13;;;;;;;;;;5094391;28;20056;-77
2023/12/04 10:46:27;;;;;;;53.95;23.15;;;;;;;;;;5094364;28;20281;-79
2023/12/04 10:48:53;;;;;;;14.73;6.13;;;;;;;;;;5095330;28;20048;-73
2023/12/04 10:51:21;;;;;;;16.80;6.05;;;;;;;;;;5095249;28;20399;-78
2023/12/04 10:53:47;;;;;;;15.15;5.70;;;;;;;;;;5094625;28;20418;-74
2023/12/04 10:56:17;;;;;;;15.35;5.85;;;;;;;;;;5093750;28;20048;-75
2023/12/04 10:58:44;;;;;;;13.13;5.85;;;;;;;;;;5094988;28;20048;-76
2023/12/04 11:01:12;;;;;;;14.73;5.80;;;;;;;;;;5093867;28;20127;-71
2023/12/04 11:03:44;;;;;;;12.52;5.30;;;;;;;;;;5095388;28;20468;-76
2023/12/04 11:06:11;;;;;;;17.35;6.25;;;;;;;;;;5094785;28;20051;-73
2023/12/04 11:08:37;;;;;;;15.38;6.07;;;;;;;;;;5094644;28;20044;-75
2023/12/04 11:11:06;;;;;;;13.48;5.43;;;;;;;;;;5094604;28;20048;-75
2023/12/04 11:13:33;;;;;;;13.50;5.63;;;;;;;;;;5094586;28;20051;-74
2023/12/04 11:16:02;;;;;;;16.40;6.38;;;;;;;;;;5094374;28;20090;-75
2023/12/04 11:18:30;;;;;;;13.27;5.47;;;;;;;;;;5093045;28;20047;-75
2023/12/04 11:21:03;;;;;;;16.65;6.32;;;;;;;;;;5094189;28;20055;-76
2023/12/04 11:23:30;;;;;;;9.68;3.33;;;;;;;;;;5092870;28;20097;-77
2023/12/04 11:25:56;;;;;;;14.88;5.18;;;;;;;;;;5076326;28;20500;-74
2023/12/04 11:28:23;;;;;;;14.13;4.67;;;;;;;;;;5094652;28;20083;-76
2023/12/04 11:30:50;;;;;;;16.65;6.25;;;;;;;;;;5093841;28;20336;-76
2023/12/04 11:33:16;;;;;;;15.30;6.23;;;;;;;;;;5096211;28;20040;-73
2023/12/04 11:35:42;;;;;;;16.45;5.13;;;;;;;;;;5099589;28;20055;-77
2023/12/04 11:38:09;;;;;;;15.27;5.95;;;;;;;;;;5098870;28;20097;-77
2023/12/04 11:40:36;;;;;;;;;;;;;;;;;;5096471;28;20074;-76
2023/12/04 11:43:05;;;;;;;13.63;5.30;;;;;;;;;;5094562;28;19924;-76
2023/12/04 11:45:40;;;;;;;15.45;5.75;;;;;;;;;;5127315;27;20534;-76
2023/12/04 11:48:06;;;;;;;14.25;5.47;;;;;;;;;;5094446;28;20452;-78
2023/12/04 11:50:33;;;;;;;13.73;4.72;;;;;;;;;;5127563;27;20102;-77
2023/12/04 11:53:03;;;;;;;13.85;5.30;;;;;;;;;;5094693;28;20036;-75
2023/12/04 11:55:29;;;;;;;13.25;4.65;;;;;;;;;;5094887;28;20050;-75
2023/12/04 11:57:57;;;;;;;13.35;5.40;;;;;;;;;;5094025;28;20403;-75
2023/12/04 12:00:24;;;;;;;11.45;4.15;;;;;;;;;;5093539;28;20101;-76
2023/12/04 12:02:53;;;;;;;16.45;5.30;;;;;;;;;;5093696;28;20044;-75
2023/12/04 12:05:20;;;;;;;13.75;5.80;;;;;;;;;;5094178;28;20066;-71
2023/12/04 12:07:46;;;;;;;16.08;5.57;;;;;;;;;;5092881;28;20055;-75
2023/12/04 12:10:13;;;;;;;13.57;4.37;;;;;;;;;;5094069;28;20400;-73
2023/12/04 12:12:43;;;;;;;14.33;5.60;;;;;;;;;;5093302;28;20036;-75
2023/12/04 12:15:10;;;;;;;16.08;5.55;;;;;;;;;;5093478;28;20044;-74
2023/12/04 12:17:36;;;;;;;13.60;5.20;;;;;;;;;;5093336;28;20051;-73
2023/12/04 12:20:03;;;;;;;17.25;6.43;;;;;;;;;;5093515;28;20056;-73
2023/12/04 12:22:32;;;;;;;12.18;5.03;;;;;;;;;;5092901;28;20052;-73
2023/12/04 12:24:58;;;;;;;15.95;6.57;;;;;;;;;;5093397;28;20040;-74
2023/12/04 12:27:25;;;;;;;16.85;5.93;;;;;;;;;;5093312;28;20043;-71
2023/12/04 12:29:51;;;;;;;14.13;6.22;;;;;;;;;;5093521;28;20101;-72
2023/12/04 12:32:17;;;;;;;15.20;6.22;;;;;;;;;;5092262;28;20082;-74
2023/12/04 12:34:43;;;;;;;14.50;5.20;;;;;;;;;;5094761;28;20058;-74
2023/12/04 12:37:09;;;;;;;14.10;5.28;;;;;;;;;;5097775;28;20047;-76
2023/12/04 12:39:36;;;;;;;11.13;3.83;;;;;;;;;;5098206;28;20048;-74
2023/12/04 12:42:04;;;;;;;12.55;5.15;;;;;;;;;;5096748;28;20132;-73
2023/12/04 12:44:39;;;;;;;15.40;5.68;;;;;;;;;;5097991;28;20141;-73
2023/12/04 12:47:06;;;;;;;11.70;3.95;;;;;;;;;;5096784;28;20048;-74
2023/12/04 12:49:33;;;;;;;;;;;;;;;;;;5096953;28;20060;-73
2023/12/04 12:52:00;;;;;;;16.20;4.82;;;;;;;;;;5097458;28;19920;-72
2023/12/04 12:54:26;;;;;;;16.25;5.38;;;;;;;;;;5096068;28;20207;-69
2023/12/04 12:56:52;;;;;;;14.63;5.78;;;;;;;;;;5097140;28;20510;-77
2023/12/04 12:59:18;;;;;;;12.77;4.55;;;;;;;;;;5097369;28;20534;-74
2023/12/04 13:01:44;;;;;;;13.73;6.03;;;;;;;;;;5095868;28;20049;-74
2023/12/04 13:04:15;;;;;;;16.10;6.35;;;;;;;;;;5096847;28;20115;-74
2023/12/04 13:06:41;;;;;;;22.00;10.25;;;;;;;;;;5097410;28;20047;-74
2023/12/04 13:09:07;;;;;;;20.55;7.78;;;;;;;;;;5097028;28;20125;-76
2023/12/04 13:11:33;;;;;;;15.23;6.32;;;;;;;;;;5078778;28;20097;-75
2023/12/04 13:14:00;;;;;;;16.58;6.28;;;;;;;;;;5096049;28;20048;-74
2023/12/04 13:16:26;;;;;;;10.02;4.75;;;;;;;;;;5078659;28;20404;-75
2023/12/04 13:18:52;;;;;;;13.40;4.82;;;;;;;;;;5097417;28;20052;-76
2023/12/04 13:21:18;;;;;;;18.27;6.38;;;;;;;;;;5097160;28;20117;-73
2023/12/04 13:23:44;;;;;;;13.93;5.05;;;;;;;;;;5096642;28;20085;-79
2023/12/04 13:26:10;;;;;;;16.45;6.55;;;;;;;;;;5097261;28;20062;-74
2023/12/04 13:28:37;;;;;;;13.38;5.43;;;;;;;;;;5078662;28;20502;-77
2023/12/04 13:31:03;;;;;;;;;;;;;;;;;;5095947;28;20036;-74
2023/12/04 13:33:29;;;;;;;16.88;7.00;;;;;;;;;;5095517;28;19965;-76
2023/12/04 13:35:55;;;;;;;17.17;5.93;;;;;;;;;;5096682;28;20059;-75
2023/12/04 13:38:21;;;;;;;15.98;5.80;;;;;;;;;;5096934;28;20063;-76
2023/12/04 13:40:59;;;;;;;18.20;6.38;;;;;;;;;;5095659;28;20447;-75
2023/12/04 13:46:11;;;;;;;15.63;6.13;;;;;;;;;;5095869;28;20104;-73
2023/12/04 13:48:40;;;;;;;14.93;5.35;;;;;;;;;;5094830;28;20480;-78
2023/12/04 13:51:07;;;;;;;17.23;5.90;;;;;;;;;;5096372;28;20055;-74
2023/12/04 13:53:34;;;;;;;;;;;;;;;;;;5096814;28;20090;-72
2023/12/04 14:01:12;;;;;;;31.67;10.63;;;;;;;;;;5097801;28;20063;-77
2023/12/04 14:03:38;;;;;;;26.95;10.27;;;;;;;;;;5098897;28;20055;-73
2023/12/04 14:06:04;;;;;;;18.90;7.88;;;;;;;;;;5102048;28;20380;-73
2023/12/04 14:08:30;;;;;;;16.13;6.88;;;;;;;;;;5098148;28;20044;-78
2023/12/04 14:10:57;;;;;;;18.65;7.10;;;;;;;;;;5096626;28;20044;-79
2023/12/04 14:13:23;;;;;;;21.27;7.53;;;;;;;;;;5096854;28;20047;-74
2023/12/04 14:15:49;;;;;;;22.17;8.23;;;;;;;;;;5095913;28;20499;-73
2023/12/04 14:18:15;;;;;;;19.98;7.85;;;;;;;;;;5094779;28;20048;-73
2023/12/04 14:20:41;;;;;;;19.13;7.30;;;;;;;;;;5096052;28;20319;-73
2023/12/04 14:23:08;;;;;;;17.52;6.70;;;;;;;;;;5094927;28;20122;-75
2023/12/04 14:25:34;;;;;;;18.05;6.57;;;;;;;;;;5095628;28;20055;-76
2023/12/04 14:28:01;;;;;;;20.38;7.28;;;;;;;;;;5095383;28;20051;-75
2023/12/04 14:30:27;;;;;;;17.75;6.55;;;;;;;;;;5094529;28;20101;-74